Aérodrome :
LOGIN :

S'inscrire | Disclaimer

   EN    FR    IT 

 










Légende :    VFR   VFR Marginal   IFR   IFR Intensif   IFR Très Intensif
Visi : 
Plafond : 
>= 8 km
>= 3000ft
5 à 8 km
1000 à 3000 ft
1500m à 5 km
500 à 1000 ft
800 à 1500m
200 à 500 ft
< 800m
< 200 ft
Symboles :   Orages  Brouillard  Fortes neiges  Fortes précipitations  Vent > 20 kt
SIGMETs :   Divers  Orages  Givrage  Turbulence  Onde Orograph.  Cendres Volcan.







- Altitude de l'aérodrome : 370 ft


EBBE - Beauvechain AB

DERNIER METAR :
  • 191025Z 18011KT 9999 SCT120 BKN250 18/11 Q1010 BLU BLU

METARs EXPIRÉS :
  • 190955Z 16009KT 9999 FEW120 BKN250 18/12 Q1010 BLU BLU
  • 190925Z 15008KT 9999 FEW120 BKN250 17/11 Q1010 BLU BLU
  • 190855Z 16010KT 9999 FEW120 BKN250 16/10 Q1010 BLU BLU
  • 190825Z 15009KT 9999 FEW120 BKN250 15/10 Q1011 BLU BLU
  • 190755Z 15007KT 9999 FEW140 BKN250 14/10 Q1011 BLU BLU

TAF TAF EBBE
Valide du 19 à 10h jusqu'au 19 à 19h UTC


190841Z 1910/1919 18006KT 9999 FEW130 SCT220
BECMG 1917/1919 SCT030 BKN055
Pas de NOTAMs connus pour ce terrain.



MET'MAP, la Météo Aéronautique d'un coup d'oeil ! - Copyright ORBIFLY Décembre 2007 - Disclaimer

ORBIFLY MET'MAP TEAM :

Programmation & Développement : Alexandra Zaïnal
Conception & Développement : Baudouin d'Aumeries
Co-Programmation & Développement : Marc-Olivier Méhu
Soutien technique & logistique : Manuel Goepfert

Contact : metmap@orbifly.com




SOURCES & CREDITS :

   NOAA